Louisville International Standiford Field
KSDF : now visible

Airfield :











YOU CAN JOIN US ON...

 
LOGIN :

Register | Disclaimer

   EN    FR    IT 

 









Legend :    VFR   Marginal VFR   IFR   Intensive IFR   Very Intensive IFR
Visi :
Ceiling :
>= 8 km
>= 3000ft
5 to 8 km
1000 to 3000 ft
1500m to 5 km
500 to 1000 ft
800 to 1500m
200 to 500 ft
< 800m
< 200 ft
Symbols :   Thunderstorms  Fog  Heavy snow  Heavy precipitations  Wind > 20 kt






- Airport Elevation : 501 ft
- IATA code : SDF


KSDF - Louisville International Standiford Field

CURRENT METAR :
  • 251856Z 17016G24KT 10SM SCT045 SCT100 BKN250 31/19 A2994 RMK AO2 PK WND 20027/1840 LTG DSNT E SLP134 CB DSNT E T03060194

EXPIRED METARs :
  • 251756Z 18015G24KT 10SM BKN037 BKN250 29/20 A2997 RMK AO2 SLP145 T02940200 10294 20200 58014
  • 251656Z 16011G17KT 10SM BKN033 BKN250 28/21 A2999 RMK AO2 SLP149 T02830206
  • 251639Z 16015G20KT 10SM SCT031 BKN170 BKN250 28/20 A2999 RMK AO2 T02830200

TAF KSDF
Valid from the 25 at 18:00 until the 27 at 00:00 UTC


251720Z 2518/2624 17013G21KT P6SM SCT025 BKN060
TEMPO 2522/2602 3SM TSRA BKN030CB
FM260200 16012KT P6SM -SHRA OVC050
FM260700 16012KT P6SM VCSH BKN022
FM261200 16012KT P6SM -SHRA OVC040
KZID FIR / North America



MET'MAP, your aeronautical weather chart ! - Copyright ORBIFLY December 2007 - Disclaimer

ORBIFLY MET'MAP TEAM :

Programming & Development : Alexandra Zaïnal
Original concept : Baudouin d'Aumeries
Technical & hardware support : Manuel Goepfert
Assistance : Marc-Olivier Méhu

Contact : metmap@orbifly.com




SOURCES & CREDITS :

   NOAA       Earth
Advisory